createdAt,value
2023-08-12T00:02:16.701Z,13.80
2023-08-12T00:04:44.605Z,13.80
2023-08-12T00:07:13.682Z,13.80
2023-08-12T00:09:41.908Z,13.80
2023-08-12T00:12:09.873Z,13.80
2023-08-12T00:14:37.887Z,13.70
2023-08-12T00:17:06.017Z,13.70
2023-08-12T00:19:35.341Z,13.60
2023-08-12T00:22:03.223Z,13.60
2023-08-12T00:24:31.443Z,13.60
2023-08-12T00:27:00.052Z,13.60
2023-08-12T00:29:27.962Z,13.50
2023-08-12T00:31:57.027Z,13.60
2023-08-12T00:34:24.967Z,13.60
2023-08-12T00:36:54.277Z,13.60
2023-08-12T00:39:22.294Z,13.50
2023-08-12T00:41:50.465Z,13.50
2023-08-12T00:44:18.543Z,13.50
2023-08-12T00:46:46.544Z,13.50
2023-08-12T00:49:14.854Z,13.40
2023-08-12T00:51:43.628Z,13.50
2023-08-12T00:54:15.459Z,13.40
2023-08-12T00:56:43.509Z,13.40
2023-08-12T00:59:12.007Z,13.30
2023-08-12T01:01:41.870Z,13.30
2023-08-12T01:04:09.842Z,13.20
2023-08-12T01:06:39.157Z,13.20
2023-08-12T01:09:07.831Z,13.20
2023-08-12T01:11:40.410Z,13.20
2023-08-12T01:14:11.208Z,13.10
2023-08-12T01:16:41.850Z,13.10
2023-08-12T01:19:12.991Z,13.10
2023-08-12T01:21:43.307Z,13.00
2023-08-12T01:24:13.079Z,13.00
2023-08-12T01:26:41.003Z,13.00
2023-08-12T01:29:08.956Z,13.00
2023-08-12T01:31:40.513Z,12.90
2023-08-12T01:34:10.166Z,12.90
2023-08-12T01:36:39.133Z,12.90
2023-08-12T01:39:08.339Z,12.90
2023-08-12T01:41:38.010Z,12.80
2023-08-12T01:44:06.277Z,12.80
2023-08-12T01:46:34.232Z,12.80
2023-08-12T01:49:02.170Z,12.90
2023-08-12T01:51:31.587Z,12.80
2023-08-12T01:53:59.545Z,12.90
2023-08-12T01:56:27.470Z,12.80
2023-08-12T01:58:56.685Z,12.90
2023-08-12T02:01:24.714Z,12.90
2023-08-12T02:03:52.829Z,12.80
2023-08-12T02:06:20.955Z,12.80
2023-08-12T02:08:48.934Z,12.80
2023-08-12T02:11:16.841Z,12.80
2023-08-12T02:13:44.693Z,12.80
2023-08-12T02:16:14.117Z,12.70
2023-08-12T02:18:42.092Z,12.70
2023-08-12T02:21:10.024Z,12.70
2023-08-12T02:23:37.984Z,12.60
2023-08-12T02:26:05.880Z,12.60
2023-08-12T02:28:33.750Z,12.60
2023-08-12T02:31:01.748Z,12.50
2023-08-12T02:33:31.055Z,12.50
2023-08-12T02:35:58.968Z,12.40
2023-08-12T02:38:26.931Z,12.40
2023-08-12T02:40:54.887Z,12.30
2023-08-12T02:43:23.006Z,12.30
2023-08-12T02:45:50.903Z,12.20
2023-08-12T02:48:18.909Z,12.20
2023-08-12T02:50:48.198Z,12.20
2023-08-12T02:53:17.413Z,12.20
2023-08-12T02:55:46.669Z,12.20
2023-08-12T02:58:14.633Z,12.20
2023-08-12T03:00:43.265Z,12.20
2023-08-12T03:03:11.417Z,12.20
2023-08-12T03:05:39.489Z,12.10
2023-08-12T03:08:08.913Z,12.20
2023-08-12T03:10:36.826Z,12.10
2023-08-12T03:13:04.838Z,12.10
2023-08-12T03:15:32.848Z,12.10
2023-08-12T03:18:00.834Z,12.10
2023-08-12T03:20:27.822Z,12.10
2023-08-12T03:22:55.776Z,12.00
2023-08-12T03:25:25.050Z,12.00
2023-08-12T03:27:52.955Z,12.00
2023-08-12T03:30:20.893Z,12.00
2023-08-12T03:32:48.927Z,12.00
2023-08-12T03:35:18.499Z,12.00
2023-08-12T03:37:48.153Z,12.00
2023-08-12T03:40:16.079Z,12.00
2023-08-12T03:42:45.405Z,12.00
2023-08-12T03:45:13.392Z,12.00
2023-08-12T03:47:41.497Z,12.00
2023-08-12T03:50:09.790Z,12.00
2023-08-12T03:52:37.832Z,12.00
2023-08-12T03:55:06.181Z,12.00
2023-08-12T03:57:34.791Z,11.90
2023-08-12T04:00:05.139Z,11.90
2023-08-12T04:02:33.391Z,11.90
2023-08-12T04:05:01.527Z,11.90
2023-08-12T04:07:29.834Z,11.90
2023-08-12T04:09:57.864Z,11.90
2023-08-12T04:12:25.879Z,11.90
2023-08-12T04:14:53.941Z,11.90
2023-08-12T04:17:23.366Z,11.90
2023-08-12T04:19:51.450Z,11.90
2023-08-12T04:22:19.471Z,11.90
2023-08-12T04:24:47.461Z,11.90
2023-08-12T04:27:17.367Z,11.90
2023-08-12T04:29:45.366Z,11.90
2023-08-12T04:32:13.310Z,11.90
2023-08-12T04:34:42.909Z,12.00
2023-08-12T04:37:11.106Z,12.00
2023-08-12T04:39:39.401Z,12.00
2023-08-12T04:42:07.728Z,12.10
2023-08-12T04:44:35.814Z,12.10
2023-08-12T04:47:04.109Z,12.20
2023-08-12T04:49:32.374Z,12.20
2023-08-12T04:52:01.848Z,12.30
2023-08-12T04:54:29.816Z,12.30
2023-08-12T04:56:58.337Z,12.40
2023-08-12T04:59:27.704Z,12.50
2023-08-12T05:02:04.072Z,12.60
2023-08-12T05:04:33.033Z,12.70
2023-08-12T05:07:02.353Z,12.70
2023-08-12T05:09:30.467Z,12.90
2023-08-12T05:11:58.408Z,12.90
2023-08-12T05:14:26.316Z,13.00
2023-08-12T05:16:54.220Z,13.10
2023-08-12T05:19:22.723Z,13.20
2023-08-12T05:21:50.759Z,13.30
2023-08-12T05:24:20.047Z,13.40
2023-08-12T05:26:49.191Z,13.50
2023-08-12T05:29:17.086Z,13.60
2023-08-12T05:31:45.122Z,13.70
2023-08-12T05:34:13.341Z,13.80
2023-08-12T05:36:41.331Z,14.00
2023-08-12T05:39:09.239Z,14.20
2023-08-12T05:41:38.540Z,14.30
2023-08-12T05:44:06.978Z,14.50
2023-08-12T05:46:34.922Z,14.60
2023-08-12T05:49:03.019Z,14.80
2023-08-12T05:51:30.980Z,14.90
2023-08-12T05:53:58.931Z,15.10
2023-08-12T05:56:26.823Z,15.30
2023-08-12T05:58:56.189Z,15.40
2023-08-12T06:01:24.309Z,15.60
2023-08-12T06:03:55.238Z,15.80
2023-08-12T06:06:23.954Z,15.90
2023-08-12T06:08:51.892Z,16.10
2023-08-12T06:11:19.874Z,16.30
2023-08-12T06:13:47.867Z,16.50
2023-08-12T06:16:17.203Z,16.70
2023-08-12T06:18:45.215Z,16.80
2023-08-12T06:21:13.220Z,17.00
2023-08-12T06:23:41.122Z,17.20
2023-08-12T06:26:09.037Z,17.40
2023-08-12T06:28:36.919Z,17.60
2023-08-12T06:31:04.855Z,17.80
2023-08-12T06:33:34.191Z,18.00
2023-08-12T06:36:02.100Z,18.30
2023-08-12T06:38:30.062Z,18.50
2023-08-12T06:40:57.976Z,18.80
2023-08-12T06:43:27.822Z,19.00
2023-08-12T06:45:58.569Z,19.20
2023-08-12T06:48:26.621Z,19.40
2023-08-12T06:50:59.624Z,19.60
2023-08-12T06:53:28.079Z,19.90
2023-08-12T06:55:56.090Z,20.20
2023-08-12T06:58:24.055Z,20.40
2023-08-12T07:00:53.557Z,20.70
2023-08-12T07:03:21.682Z,20.90
2023-08-12T07:05:49.771Z,21.20
2023-08-12T07:08:19.027Z,21.40
2023-08-12T07:10:46.945Z,21.70
2023-08-12T07:13:14.888Z,22.00
2023-08-12T07:15:42.914Z,22.20
2023-08-12T07:18:12.426Z,22.50
2023-08-12T07:20:40.435Z,22.70
2023-08-12T07:23:08.347Z,22.90
2023-08-12T07:25:37.652Z,23.20
2023-08-12T07:28:05.916Z,23.50
2023-08-12T07:30:35.811Z,23.70
2023-08-12T07:33:03.826Z,23.90
2023-08-12T07:35:31.857Z,24.00
2023-08-12T07:37:59.757Z,24.20
2023-08-12T07:40:27.671Z,24.40
2023-08-12T07:42:56.973Z,24.50
2023-08-12T07:45:24.926Z,24.70
2023-08-12T07:47:53.229Z,24.90
2023-08-12T07:50:21.450Z,25.00
2023-08-12T07:52:49.399Z,25.20
2023-08-12T07:55:17.632Z,25.30
2023-08-12T07:57:46.525Z,25.50
2023-08-12T08:00:16.266Z,25.60
2023-08-12T08:02:44.217Z,25.80
2023-08-12T08:05:12.295Z,25.90
2023-08-12T08:07:40.227Z,26.10
2023-08-12T08:10:08.676Z,26.20
2023-08-12T08:12:36.693Z,26.30
2023-08-12T08:15:05.145Z,26.50
2023-08-12T08:17:35.773Z,26.60
2023-08-12T08:20:06.327Z,26.70
2023-08-12T08:22:34.370Z,26.90
2023-08-12T08:25:02.345Z,27.00
2023-08-12T08:27:30.296Z,27.00
2023-08-12T08:29:58.293Z,27.20
2023-08-12T08:32:26.917Z,27.30
2023-08-12T08:34:56.483Z,27.50
2023-08-12T08:37:24.610Z,27.60
2023-08-12T08:39:52.561Z,27.80
2023-08-12T08:42:23.047Z,27.90
2023-08-12T08:44:54.102Z,28.00
2023-08-12T08:47:23.942Z,28.10
2023-08-12T08:49:54.134Z,28.20
2023-08-12T08:52:24.091Z,28.40
2023-08-12T08:54:53.373Z,28.40
2023-08-12T08:57:23.405Z,28.50
2023-08-12T09:00:16.384Z,28.50
2023-08-12T09:02:45.674Z,28.70
2023-08-12T09:05:15.177Z,28.90
2023-08-12T09:07:45.208Z,29.10
2023-08-12T09:10:15.668Z,29.20
2023-08-12T09:12:44.586Z,29.30
2023-08-12T09:15:12.609Z,29.40
2023-08-12T09:17:40.777Z,29.70
2023-08-12T09:20:12.949Z,29.90
2023-08-12T09:22:42.180Z,30.00
2023-08-12T09:25:12.307Z,30.10
2023-08-12T09:27:40.404Z,30.20
2023-08-12T09:30:09.348Z,30.30
2023-08-12T09:32:39.485Z,30.50
2023-08-12T09:35:09.926Z,30.60
2023-08-12T09:37:38.917Z,30.70
2023-08-12T09:40:07.912Z,30.70
2023-08-12T09:42:37.209Z,30.80
2023-08-12T09:45:08.758Z,31.00
2023-08-12T09:47:36.860Z,31.10
2023-08-12T09:50:05.060Z,31.20
2023-08-12T09:52:33.754Z,31.30
2023-08-12T09:55:02.926Z,31.30
2023-08-12T09:57:33.148Z,31.50
2023-08-12T10:00:03.514Z,31.70
2023-08-12T10:02:31.614Z,31.60
2023-08-12T10:05:00.796Z,31.60
2023-08-12T10:07:28.847Z,31.80
2023-08-12T10:09:58.430Z,32.00
2023-08-12T10:12:26.767Z,32.10
2023-08-12T10:14:54.767Z,32.10
2023-08-12T10:17:41.218Z,32.30
2023-08-12T10:20:14.517Z,32.50
2023-08-12T10:22:42.592Z,32.60
2023-08-12T10:25:10.921Z,32.50
2023-08-12T10:27:39.056Z,32.60
2023-08-12T10:30:08.809Z,32.70
2023-08-12T10:32:38.481Z,32.70
2023-08-12T10:35:07.575Z,32.80
2023-08-12T10:37:36.240Z,33.00
2023-08-12T10:40:08.391Z,33.00
2023-08-12T10:42:43.507Z,33.20
2023-08-12T10:45:12.073Z,33.30
2023-08-12T10:47:41.857Z,33.40
2023-08-12T10:50:18.770Z,33.60
2023-08-12T10:52:46.891Z,33.60
2023-08-12T10:55:18.573Z,33.80
2023-08-12T10:57:47.024Z,33.60
2023-08-12T11:00:16.031Z,33.80
2023-08-12T11:02:48.094Z,33.90
2023-08-12T11:05:16.213Z,34.00
2023-08-12T11:07:45.134Z,34.30
2023-08-12T11:10:13.995Z,34.40
2023-08-12T11:12:42.448Z,34.50
2023-08-12T11:15:11.937Z,34.60
2023-08-12T11:17:41.005Z,34.70
2023-08-12T11:20:11.796Z,34.80
2023-08-12T11:22:40.700Z,35.00
2023-08-12T11:25:09.817Z,35.20
2023-08-12T11:27:41.784Z,35.30
2023-08-12T11:30:11.380Z,35.20
2023-08-12T11:32:40.139Z,35.00
2023-08-12T11:35:08.771Z,35.10
2023-08-12T11:37:38.906Z,35.10
2023-08-12T11:40:09.885Z,35.20
2023-08-12T11:42:38.222Z,35.20
2023-08-12T11:45:06.868Z,35.40
2023-08-12T11:47:34.822Z,35.50
2023-08-12T11:50:04.816Z,35.70
2023-08-12T11:52:32.933Z,35.70
2023-08-12T11:55:02.410Z,35.90
2023-08-12T11:57:30.364Z,35.80
2023-08-12T12:00:00.631Z,35.90
2023-08-12T12:02:28.624Z,36.00
2023-08-12T12:04:56.664Z,35.80
2023-08-12T12:07:25.793Z,35.90
2023-08-12T12:09:55.457Z,36.00
2023-08-12T12:12:27.855Z,36.10
2023-08-12T12:14:55.996Z,36.20
2023-08-12T12:17:24.294Z,36.20
2023-08-12T12:19:54.970Z,36.10
2023-08-12T12:22:28.340Z,36.10
2023-08-12T12:24:56.514Z,36.20
2023-08-12T12:27:24.439Z,36.50
2023-08-12T12:29:53.778Z,36.60
2023-08-12T12:32:22.308Z,36.60
2023-08-12T12:34:50.672Z,36.60
2023-08-12T12:37:18.614Z,36.60
2023-08-12T12:39:46.751Z,36.80
2023-08-12T12:42:15.120Z,37.00
2023-08-12T12:44:43.386Z,37.20
2023-08-12T12:47:13.513Z,37.40
2023-08-12T12:49:42.553Z,37.40
2023-08-12T12:52:10.674Z,37.50
2023-08-12T12:54:38.889Z,37.40
2023-08-12T12:57:07.439Z,37.40
2023-08-12T12:59:35.357Z,37.40
2023-08-12T13:02:03.270Z,37.30
2023-08-12T13:04:32.613Z,37.30
2023-08-12T13:07:00.565Z,37.20
2023-08-12T13:09:28.473Z,37.30
2023-08-12T13:11:58.134Z,37.50
2023-08-12T13:14:26.297Z,37.60
2023-08-12T13:16:54.244Z,37.60
2023-08-12T13:19:22.289Z,37.60
2023-08-12T13:21:51.668Z,37.60
2023-08-12T13:24:19.614Z,37.50
2023-08-12T13:26:47.604Z,37.70
2023-08-12T13:29:15.531Z,37.90
2023-08-12T13:31:43.622Z,38.00
2023-08-12T13:34:11.631Z,37.90
2023-08-12T13:36:39.552Z,37.80
2023-08-12T13:39:08.963Z,37.90
2023-08-12T13:41:36.970Z,37.90
2023-08-12T13:44:05.631Z,37.80
2023-08-12T13:46:33.613Z,37.80
2023-08-12T13:49:01.606Z,37.80
2023-08-12T13:51:29.962Z,37.80
2023-08-12T13:53:57.821Z,37.90
2023-08-12T13:56:27.147Z,37.90
2023-08-12T13:58:55.225Z,37.80
2023-08-12T14:01:23.563Z,37.80
2023-08-12T14:03:51.570Z,37.70
2023-08-12T14:06:19.611Z,37.70
2023-08-12T14:08:47.506Z,37.70
2023-08-12T14:11:15.519Z,37.70
2023-08-12T14:13:44.919Z,37.70
2023-08-12T14:16:13.102Z,37.70
2023-08-12T14:18:41.079Z,37.60
2023-08-12T14:21:09.074Z,37.60
2023-08-12T14:23:37.064Z,37.60
2023-08-12T14:26:04.956Z,37.50
2023-08-12T14:28:32.943Z,37.40
2023-08-12T14:31:02.444Z,37.40
2023-08-12T14:33:30.860Z,37.30
2023-08-12T14:35:59.639Z,37.30
2023-08-12T14:38:27.544Z,37.20
2023-08-12T14:40:55.468Z,37.10
2023-08-12T14:43:23.397Z,36.90
2023-08-12T14:45:51.339Z,36.70
2023-08-12T14:48:20.713Z,36.40
2023-08-12T14:50:48.728Z,36.20
2023-08-12T14:53:16.718Z,35.90
2023-08-12T14:55:46.064Z,35.60
2023-08-12T14:58:15.620Z,35.30
2023-08-12T15:00:43.608Z,35.10
2023-08-12T15:03:12.808Z,34.90
2023-08-12T15:05:42.355Z,34.60
2023-08-12T15:08:10.314Z,34.30
2023-08-12T15:10:38.372Z,34.00
2023-08-12T15:13:06.341Z,33.70
2023-08-12T15:15:34.306Z,33.50
2023-08-12T15:18:02.323Z,33.40
2023-08-12T15:20:32.233Z,33.10
2023-08-12T15:23:01.727Z,33.00
2023-08-12T15:25:29.783Z,32.90
2023-08-12T15:27:57.808Z,32.80
2023-08-12T15:30:25.903Z,32.70
2023-08-12T15:32:53.853Z,32.70
2023-08-12T15:35:22.863Z,32.60
2023-08-12T15:37:50.883Z,32.70
2023-08-12T15:40:21.150Z,32.60
2023-08-12T15:42:50.916Z,32.70
2023-08-12T15:45:19.032Z,32.70
2023-08-12T15:47:46.996Z,32.70
2023-08-12T15:50:14.942Z,32.70
2023-08-12T15:52:43.251Z,32.60
2023-08-12T15:55:11.268Z,32.50
2023-08-12T15:57:40.608Z,32.40
2023-08-12T16:00:11.641Z,32.20
2023-08-12T16:02:39.719Z,32.00
2023-08-12T16:05:08.208Z,31.80
2023-08-12T16:07:36.201Z,31.70
2023-08-12T16:10:04.422Z,31.70
2023-08-12T16:12:32.382Z,31.60
2023-08-12T16:15:01.798Z,31.40
2023-08-12T16:17:29.776Z,31.30
2023-08-12T16:19:57.893Z,31.20
2023-08-12T16:22:25.862Z,31.00
2023-08-12T16:24:53.906Z,30.80
2023-08-12T16:27:21.924Z,30.60
2023-08-12T16:29:50.006Z,30.40
2023-08-12T16:32:19.388Z,30.30
2023-08-12T16:34:47.353Z,30.10
2023-08-12T16:37:21.542Z,29.90
2023-08-12T16:39:49.821Z,29.80
2023-08-12T16:42:19.173Z,29.60
2023-08-12T16:44:49.011Z,29.50
2023-08-12T16:47:17.073Z,29.40
2023-08-12T16:49:46.379Z,29.20
2023-08-12T16:52:14.689Z,29.10
2023-08-12T16:54:43.052Z,28.90
2023-08-12T16:57:11.042Z,28.80
2023-08-12T16:59:38.963Z,28.70
2023-08-12T17:02:07.093Z,28.50
2023-08-12T17:04:34.975Z,28.30
2023-08-12T17:07:04.305Z,28.10
2023-08-12T17:09:34.479Z,27.90
2023-08-12T17:12:02.642Z,27.80
2023-08-12T17:14:30.623Z,27.70
2023-08-12T17:16:58.919Z,27.60
2023-08-12T17:19:26.969Z,27.50
2023-08-12T17:21:55.008Z,27.30
2023-08-12T17:24:24.299Z,27.30
2023-08-12T17:26:52.510Z,27.20
2023-08-12T17:29:20.475Z,27.10
2023-08-12T17:31:48.386Z,27.10
2023-08-12T17:34:16.315Z,27.00
2023-08-12T17:36:44.367Z,26.90
2023-08-12T17:39:12.337Z,26.80
2023-08-12T17:41:41.629Z,26.70
2023-08-12T17:44:09.611Z,26.60
2023-08-12T17:46:37.588Z,26.50
2023-08-12T17:49:05.666Z,26.30
2023-08-12T17:51:33.618Z,26.30
2023-08-12T17:54:01.612Z,26.10
2023-08-12T17:56:29.618Z,26.00
2023-08-12T17:59:00.204Z,25.90
2023-08-12T18:01:28.205Z,25.80
2023-08-12T18:03:57.642Z,25.60
2023-08-12T18:06:25.752Z,25.50
2023-08-12T18:08:54.374Z,25.30
2023-08-12T18:11:22.594Z,25.20
2023-08-12T18:13:50.540Z,25.10
2023-08-12T18:16:19.910Z,25.00
2023-08-12T18:18:47.976Z,24.90
2023-08-12T18:21:15.920Z,24.70
2023-08-12T18:23:43.912Z,24.60
2023-08-12T18:26:11.960Z,24.50
2023-08-12T18:28:39.967Z,24.40
2023-08-12T18:31:07.958Z,24.30
2023-08-12T18:33:37.371Z,24.20
2023-08-12T18:36:06.146Z,24.10
2023-08-12T18:38:34.083Z,24.10
2023-08-12T18:41:02.080Z,23.90
2023-08-12T18:43:29.987Z,23.90
2023-08-12T18:45:57.900Z,23.70
2023-08-12T18:48:25.984Z,23.60
2023-08-12T18:50:55.200Z,23.50
2023-08-12T18:53:23.320Z,23.40
2023-08-12T18:55:51.441Z,23.40
2023-08-12T18:58:19.405Z,23.30
2023-08-12T19:00:47.324Z,23.30
2023-08-12T19:03:15.458Z,23.20
2023-08-12T19:05:44.075Z,23.10
2023-08-12T19:08:16.169Z,23.10
2023-08-12T19:10:45.315Z,23.00
2023-08-12T19:13:13.310Z,23.00
2023-08-12T19:15:43.696Z,22.90
2023-08-12T19:18:11.677Z,22.80
2023-08-12T19:20:39.695Z,22.70
2023-08-12T19:23:07.747Z,22.60
2023-08-12T19:25:37.364Z,22.60
2023-08-12T19:28:05.540Z,22.50
2023-08-12T19:30:33.770Z,22.40
2023-08-12T19:33:01.915Z,22.40
2023-08-12T19:35:30.208Z,22.30
2023-08-12T19:37:59.998Z,22.20
2023-08-12T19:40:28.420Z,22.20
2023-08-12T19:42:57.813Z,22.10
2023-08-12T19:45:25.765Z,22.00
2023-08-12T19:47:53.754Z,22.00
2023-08-12T19:50:22.395Z,21.90
2023-08-12T19:52:50.580Z,21.90
2023-08-12T19:55:19.282Z,21.80
2023-08-12T19:57:47.704Z,21.70
2023-08-12T20:00:17.180Z,21.60
2023-08-12T20:02:45.383Z,21.50
2023-08-12T20:05:15.216Z,21.50
2023-08-12T20:07:43.583Z,21.40
2023-08-12T20:10:12.252Z,21.30
2023-08-12T20:12:40.209Z,21.30
2023-08-12T20:15:08.722Z,21.20
2023-08-12T20:17:38.141Z,21.20
2023-08-12T20:20:10.614Z,21.10
2023-08-12T20:22:44.431Z,21.00
2023-08-12T20:25:19.089Z,20.90
2023-08-12T20:27:46.982Z,20.80
2023-08-12T20:30:14.906Z,20.80
2023-08-12T20:32:44.794Z,20.70
2023-08-12T20:35:12.843Z,20.70
2023-08-12T20:37:40.773Z,20.60
2023-08-12T20:40:09.375Z,20.50
2023-08-12T20:42:37.240Z,20.50
2023-08-12T20:45:05.722Z,20.40
2023-08-12T20:47:33.729Z,20.40
2023-08-12T20:50:03.427Z,20.30
2023-08-12T20:52:31.855Z,20.30
2023-08-12T20:54:59.812Z,20.30
2023-08-12T20:57:27.863Z,20.20
2023-08-12T20:59:57.407Z,20.20
2023-08-12T21:02:26.465Z,20.10
2023-08-12T21:04:54.601Z,20.10
2023-08-12T21:07:23.893Z,20.10
2023-08-12T21:09:51.790Z,20.00
2023-08-12T21:12:19.703Z,20.00
2023-08-12T21:14:47.617Z,20.00
2023-08-12T21:17:15.567Z,20.00
2023-08-12T21:19:43.493Z,19.90
2023-08-12T21:22:11.714Z,19.80
2023-08-12T21:24:41.331Z,19.80
2023-08-12T21:27:09.280Z,19.70
2023-08-12T21:29:37.338Z,19.60
2023-08-12T21:32:05.534Z,19.60
2023-08-12T21:34:33.501Z,19.50
2023-08-12T21:37:01.366Z,19.40
2023-08-12T21:39:29.262Z,19.40
2023-08-12T21:41:58.537Z,19.30
2023-08-12T21:44:26.443Z,19.30
2023-08-12T21:46:54.355Z,19.20
2023-08-12T21:49:22.329Z,19.10
2023-08-12T21:51:50.309Z,19.00
2023-08-12T21:54:18.979Z,19.00
2023-08-12T21:56:46.945Z,18.90
2023-08-12T21:59:16.324Z,18.90
2023-08-12T22:01:44.792Z,18.80
2023-08-12T22:04:12.849Z,18.80
2023-08-12T22:06:40.856Z,18.70
2023-08-12T22:09:09.539Z,18.70
2023-08-12T22:11:37.506Z,18.60
2023-08-12T22:14:05.575Z,18.60
2023-08-12T22:16:34.870Z,18.50
2023-08-12T22:19:02.785Z,18.50
2023-08-12T22:21:30.755Z,18.40
2023-08-12T22:23:58.632Z,18.40
2023-08-12T22:26:26.620Z,18.40
2023-08-12T22:28:54.528Z,18.30
2023-08-12T22:31:22.559Z,18.30
2023-08-12T22:33:51.958Z,18.20
2023-08-12T22:36:19.864Z,18.20
2023-08-12T22:38:47.964Z,18.10
2023-08-12T22:41:15.966Z,18.10
2023-08-12T22:43:43.867Z,18.00
2023-08-12T22:46:11.763Z,18.00
2023-08-12T22:48:40.439Z,18.00
2023-08-12T22:51:09.749Z,18.00
2023-08-12T22:53:37.763Z,18.00
2023-08-12T22:56:05.892Z,17.90
2023-08-12T22:58:33.777Z,17.90
2023-08-12T23:01:01.750Z,17.80
2023-08-12T23:03:29.819Z,17.80
2023-08-12T23:05:57.790Z,17.70
2023-08-12T23:08:27.039Z,17.70
2023-08-12T23:10:54.954Z,17.70
2023-08-12T23:13:23.619Z,17.70
2023-08-12T23:15:51.556Z,17.60
2023-08-12T23:18:19.894Z,17.60
2023-08-12T23:20:47.784Z,17.50
2023-08-12T23:23:15.760Z,17.50
2023-08-12T23:25:45.081Z,17.40
2023-08-12T23:28:13.044Z,17.30
2023-08-12T23:30:41.415Z,17.30
2023-08-12T23:33:09.407Z,17.30
2023-08-12T23:35:37.320Z,17.20
2023-08-12T23:38:05.408Z,17.20
2023-08-12T23:40:33.305Z,17.20
2023-08-12T23:43:02.724Z,17.10
2023-08-12T23:45:30.689Z,17.10
2023-08-12T23:47:58.699Z,17.10
2023-08-12T23:50:26.617Z,17.00
2023-08-12T23:52:54.560Z,17.00
2023-08-12T23:55:22.678Z,17.00
2023-08-12T23:57:50.639Z,17.00
